sensor_id;sensor_type;location;lat;lon;timestamp;temperature;humidity
30889;DHT22;51092;50.874;7.024;2022-08-19T00:00:09;20.80;98.70
30889;DHT22;51092;50.874;7.024;2022-08-19T00:01:12;20.80;97.00
30889;DHT22;51092;50.874;7.024;2022-08-19T00:02:14;20.70;97.60
30889;DHT22;51092;50.874;7.024;2022-08-19T00:03:16;20.70;97.10
30889;DHT22;51092;50.874;7.024;2022-08-19T00:04:21;20.80;96.50
30889;DHT22;51092;50.874;7.024;2022-08-19T00:05:23;20.80;95.30
30889;DHT22;51092;50.874;7.024;2022-08-19T00:06:26;20.80;95.10
30889;DHT22;51092;50.874;7.024;2022-08-19T00:07:28;20.80;94.40
30889;DHT22;51092;50.874;7.024;2022-08-19T00:08:30;20.80;94.40
30889;DHT22;51092;50.874;7.024;2022-08-19T00:09:33;20.80;94.10
30889;DHT22;51092;50.874;7.024;2022-08-19T00:10:35;20.80;94.00
30889;DHT22;51092;50.874;7.024;2022-08-19T00:11:38;20.80;93.70
30889;DHT22;51092;50.874;7.024;2022-08-19T00:12:41;20.80;93.10
30889;DHT22;51092;50.874;7.024;2022-08-19T00:13:43;20.70;93.10
30889;DHT22;51092;50.874;7.024;2022-08-19T00:14:48;20.80;93.20
30889;DHT22;51092;50.874;7.024;2022-08-19T00:15:49;20.70;93.00
30889;DHT22;51092;50.874;7.024;2022-08-19T00:16:53;20.70;93.80
30889;DHT22;51092;50.874;7.024;2022-08-19T00:17:55;20.70;93.40
30889;DHT22;51092;50.874;7.024;2022-08-19T00:18:58;20.70;94.80
30889;DHT22;51092;50.874;7.024;2022-08-19T00:19:59;20.60;97.50
30889;DHT22;51092;50.874;7.024;2022-08-19T00:21:02;20.50;98.60
30889;DHT22;51092;50.874;7.024;2022-08-19T00:22:04;20.40;99.40
30889;DHT22;51092;50.874;7.024;2022-08-19T00:23:07;20.40;99.90
30889;DHT22;51092;50.874;7.024;2022-08-19T00:24:11;20.40;99.90
30889;DHT22;51092;50.874;7.024;2022-08-19T00:25:14;20.40;98.10
30889;DHT22;51092;50.874;7.024;2022-08-19T00:26:16;20.30;99.60
30889;DHT22;51092;50.874;7.024;2022-08-19T00:27:18;20.40;99.90
30889;DHT22;51092;50.874;7.024;2022-08-19T00:28:20;20.30;98.90
30889;DHT22;51092;50.874;7.024;2022-08-19T00:29:23;20.40;98.80
30889;DHT22;51092;50.874;7.024;2022-08-19T00:30:27;20.30;97.50
30889;DHT22;51092;50.874;7.024;2022-08-19T00:31:29;20.40;97.00
30889;DHT22;51092;50.874;7.024;2022-08-19T00:32:32;20.40;96.80
30889;DHT22;51092;50.874;7.024;2022-08-19T00:33:35;20.40;96.90
30889;DHT22;51092;50.874;7.024;2022-08-19T00:34:37;20.40;96.90
30889;DHT22;51092;50.874;7.024;2022-08-19T00:35:39;20.40;96.20
30889;DHT22;51092;50.874;7.024;2022-08-19T00:36:41;20.30;97.20
30889;DHT22;51092;50.874;7.024;2022-08-19T00:37:44;20.40;97.40
30889;DHT22;51092;50.874;7.024;2022-08-19T00:38:46;20.40;96.70
30889;DHT22;51092;50.874;7.024;2022-08-19T00:39:48;20.30;97.40
30889;DHT22;51092;50.874;7.024;2022-08-19T00:40:50;20.30;98.30
30889;DHT22;51092;50.874;7.024;2022-08-19T00:41:52;20.30;99.80
30889;DHT22;51092;50.874;7.024;2022-08-19T00:42:54;20.20;99.40
30889;DHT22;51092;50.874;7.024;2022-08-19T00:43:59;20.20;99.90
30889;DHT22;51092;50.874;7.024;2022-08-19T00:45:01;20.20;99.90
30889;DHT22;51092;50.874;7.024;2022-08-19T00:46:06;20.10;99.90
30889;DHT22;51092;50.874;7.024;2022-08-19T00:47:07;20.10;99.90
30889;DHT22;51092;50.874;7.024;2022-08-19T00:48:10;20.10;99.90
30889;DHT22;51092;50.874;7.024;2022-08-19T00:49:14;20.10;99.90
30889;DHT22;51092;50.874;7.024;2022-08-19T00:50:20;20.10;99.90
30889;DHT22;51092;50.874;7.024;2022-08-19T00:51:22;20.00;99.90
30889;DHT22;51092;50.874;7.024;2022-08-19T00:52:29;20.00;99.90
30889;DHT22;51092;50.874;7.024;2022-08-19T00:53:32;20.00;99.90
30889;DHT22;51092;50.874;7.024;2022-08-19T00:54:36;20.00;99.90
30889;DHT22;51092;50.874;7.024;2022-08-19T00:55:39;19.80;99.90
30889;DHT22;51092;50.874;7.024;2022-08-19T00:56:43;19.60;99.90
30889;DHT22;51092;50.874;7.024;2022-08-19T00:57:48;19.50;99.90
30889;DHT22;51092;50.874;7.024;2022-08-19T00:58:54;19.50;99.90
30889;DHT22;51092;50.874;7.024;2022-08-19T00:59:58;19.40;99.90
30889;DHT22;51092;50.874;7.024;2022-08-19T01:01:05;19.50;99.90
30889;DHT22;51092;50.874;7.024;2022-08-19T01:02:07;19.50;99.90
30889;DHT22;51092;50.874;7.024;2022-08-19T01:03:12;19.50;99.90
30889;DHT22;51092;50.874;7.024;2022-08-19T01:04:14;19.50;99.90
30889;DHT22;51092;50.874;7.024;2022-08-19T01:05:19;19.50;99.90
30889;DHT22;51092;50.874;7.024;2022-08-19T01:06:21;19.50;99.90
30889;DHT22;51092;50.874;7.024;2022-08-19T01:07:24;19.50;99.90
30889;DHT22;51092;50.874;7.024;2022-08-19T01:08:26;19.50;99.90
30889;DHT22;51092;50.874;7.024;2022-08-19T01:09:29;19.50;99.90
30889;DHT22;51092;50.874;7.024;2022-08-19T01:10:35;19.60;99.90
30889;DHT22;51092;50.874;7.024;2022-08-19T01:11:41;19.60;99.90
30889;DHT22;51092;50.874;7.024;2022-08-19T01:12:46;19.60;99.90
30889;DHT22;51092;50.874;7.024;2022-08-19T01:13:49;19.60;99.90
30889;DHT22;51092;50.874;7.024;2022-08-19T01:14:52;19.60;99.90
30889;DHT22;51092;50.874;7.024;2022-08-19T01:15:57;19.60;99.90
30889;DHT22;51092;50.874;7.024;2022-08-19T01:17:02;19.60;99.90
30889;DHT22;51092;50.874;7.024;2022-08-19T01:18:08;19.60;99.90
30889;DHT22;51092;50.874;7.024;2022-08-19T01:19:22;19.60;99.90
30889;DHT22;51092;50.874;7.024;2022-08-19T01:20:27;19.60;99.90
30889;DHT22;51092;50.874;7.024;2022-08-19T01:21:32;19.70;99.90
30889;DHT22;51092;50.874;7.024;2022-08-19T01:22:41;19.60;99.90
30889;DHT22;51092;50.874;7.024;2022-08-19T01:23:44;19.50;99.90
30889;DHT22;51092;50.874;7.024;2022-08-19T01:24:47;19.40;99.90
30889;DHT22;51092;50.874;7.024;2022-08-19T01:25:51;19.40;99.90
30889;DHT22;51092;50.874;7.024;2022-08-19T01:26:56;19.40;99.90
30889;DHT22;51092;50.874;7.024;2022-08-19T01:27:58;19.40;99.90
30889;DHT22;51092;50.874;7.024;2022-08-19T01:29:01;19.40;99.90
30889;DHT22;51092;50.874;7.024;2022-08-19T01:30:03;19.40;99.90
30889;DHT22;51092;50.874;7.024;2022-08-19T01:31:08;19.40;99.90
30889;DHT22;51092;50.874;7.024;2022-08-19T01:32:14;19.40;99.90
30889;DHT22;51092;50.874;7.024;2022-08-19T01:33:18;19.40;99.90
30889;DHT22;51092;50.874;7.024;2022-08-19T01:34:20;19.40;99.90
30889;DHT22;51092;50.874;7.024;2022-08-19T01:35:26;19.40;99.90
30889;DHT22;51092;50.874;7.024;2022-08-19T01:36:32;19.30;99.90
30889;DHT22;51092;50.874;7.024;2022-08-19T01:37:44;19.30;99.90
30889;DHT22;51092;50.874;7.024;2022-08-19T01:38:47;19.30;99.90
30889;DHT22;51092;50.874;7.024;2022-08-19T01:39:49;19.30;99.90
30889;DHT22;51092;50.874;7.024;2022-08-19T01:40:52;19.30;99.90
30889;DHT22;51092;50.874;7.024;2022-08-19T01:41:54;19.20;99.90
30889;DHT22;51092;50.874;7.024;2022-08-19T01:42:57;19.20;99.90
30889;DHT22;51092;50.874;7.024;2022-08-19T01:43:58;19.10;99.90
30889;DHT22;51092;50.874;7.024;2022-08-19T01:45:02;19.10;99.90
30889;DHT22;51092;50.874;7.024;2022-08-19T01:46:04;19.10;99.90
30889;DHT22;51092;50.874;7.024;2022-08-19T01:47:07;19.10;99.90
30889;DHT22;51092;50.874;7.024;2022-08-19T01:48:08;19.10;99.90
30889;DHT22;51092;50.874;7.024;2022-08-19T01:49:11;19.10;99.90
30889;DHT22;51092;50.874;7.024;2022-08-19T01:50:13;19.10;99.90
30889;DHT22;51092;50.874;7.024;2022-08-19T01:51:16;19.10;99.90
30889;DHT22;51092;50.874;7.024;2022-08-19T01:52:18;19.10;99.90
30889;DHT22;51092;50.874;7.024;2022-08-19T01:53:22;19.10;99.90
30889;DHT22;51092;50.874;7.024;2022-08-19T01:54:24;19.10;99.90
30889;DHT22;51092;50.874;7.024;2022-08-19T01:55:26;19.10;99.90
30889;DHT22;51092;50.874;7.024;2022-08-19T01:56:28;19.20;99.90
30889;DHT22;51092;50.874;7.024;2022-08-19T01:57:34;19.20;99.90
30889;DHT22;51092;50.874;7.024;2022-08-19T01:58:38;19.20;99.90
30889;DHT22;51092;50.874;7.024;2022-08-19T01:59:44;19.20;99.90
30889;DHT22;51092;50.874;7.024;2022-08-19T02:00:46;19.10;99.90
30889;DHT22;51092;50.874;7.024;2022-08-19T02:01:50;19.10;99.90
30889;DHT22;51092;50.874;7.024;2022-08-19T02:02:52;19.10;99.90
30889;DHT22;51092;50.874;7.024;2022-08-19T02:03:55;19.10;99.90
30889;DHT22;51092;50.874;7.024;2022-08-19T02:04:57;19.10;99.90
30889;DHT22;51092;50.874;7.024;2022-08-19T02:06:01;19.10;99.90
30889;DHT22;51092;50.874;7.024;2022-08-19T02:07:04;19.10;99.90
30889;DHT22;51092;50.874;7.024;2022-08-19T02:08:07;19.10;99.90
30889;DHT22;51092;50.874;7.024;2022-08-19T02:09:10;19.10;99.90
30889;DHT22;51092;50.874;7.024;2022-08-19T02:10:17;19.10;99.90
30889;DHT22;51092;50.874;7.024;2022-08-19T02:11:20;19.10;99.90
30889;DHT22;51092;50.874;7.024;2022-08-19T02:12:23;19.10;99.90
30889;DHT22;51092;50.874;7.024;2022-08-19T02:13:25;19.10;99.90
30889;DHT22;51092;50.874;7.024;2022-08-19T02:14:28;19.10;99.90
30889;DHT22;51092;50.874;7.024;2022-08-19T02:15:29;19.10;99.90
30889;DHT22;51092;50.874;7.024;2022-08-19T02:16:33;19.10;99.90
30889;DHT22;51092;50.874;7.024;2022-08-19T02:17:36;19.10;99.90
30889;DHT22;51092;50.874;7.024;2022-08-19T02:18:38;19.10;99.90
30889;DHT22;51092;50.874;7.024;2022-08-19T02:19:40;19.10;99.90
30889;DHT22;51092;50.874;7.024;2022-08-19T02:20:42;19.10;99.90
30889;DHT22;51092;50.874;7.024;2022-08-19T02:21:44;19.20;99.90
30889;DHT22;51092;50.874;7.024;2022-08-19T02:22:46;19.10;99.90
30889;DHT22;51092;50.874;7.024;2022-08-19T02:23:48;19.10;99.90
30889;DHT22;51092;50.874;7.024;2022-08-19T02:24:52;19.10;99.90
30889;DHT22;51092;50.874;7.024;2022-08-19T02:25:55;19.10;99.90
30889;DHT22;51092;50.874;7.024;2022-08-19T02:26:57;19.10;99.90
30889;DHT22;51092;50.874;7.024;2022-08-19T02:28:00;19.10;99.90
30889;DHT22;51092;50.874;7.024;2022-08-19T02:29:03;19.10;99.90
30889;DHT22;51092;50.874;7.024;2022-08-19T02:30:06;19.10;99.90
30889;DHT22;51092;50.874;7.024;2022-08-19T02:31:09;19.00;99.90
30889;DHT22;51092;50.874;7.024;2022-08-19T02:32:11;19.10;99.90
30889;DHT22;51092;50.874;7.024;2022-08-19T02:33:14;19.00;99.90
30889;DHT22;51092;50.874;7.024;2022-08-19T02:34:17;19.00;99.90
30889;DHT22;51092;50.874;7.024;2022-08-19T02:35:20;18.90;99.90
30889;DHT22;51092;50.874;7.024;2022-08-19T02:36:22;18.90;99.90
30889;DHT22;51092;50.874;7.024;2022-08-19T02:37:25;18.90;99.90
30889;DHT22;51092;50.874;7.024;2022-08-19T02:38:45;18.90;99.90
30889;DHT22;51092;50.874;7.024;2022-08-19T02:39:47;18.80;99.90
30889;DHT22;51092;50.874;7.024;2022-08-19T02:40:52;18.80;99.90
30889;DHT22;51092;50.874;7.024;2022-08-19T02:41:54;18.80;99.90
30889;DHT22;51092;50.874;7.024;2022-08-19T02:42:56;18.80;99.90
30889;DHT22;51092;50.874;7.024;2022-08-19T02:44:00;18.80;99.90
30889;DHT22;51092;50.874;7.024;2022-08-19T02:45:04;18.80;99.90
30889;DHT22;51092;50.874;7.024;2022-08-19T02:46:12;18.80;99.90
30889;DHT22;51092;50.874;7.024;2022-08-19T02:47:15;18.80;99.90
30889;DHT22;51092;50.874;7.024;2022-08-19T02:48:17;18.80;99.90
30889;DHT22;51092;50.874;7.024;2022-08-19T02:49:19;18.80;99.90
30889;DHT22;51092;50.874;7.024;2022-08-19T02:50:22;18.80;99.90
30889;DHT22;51092;50.874;7.024;2022-08-19T02:51:25;18.80;99.90
30889;DHT22;51092;50.874;7.024;2022-08-19T02:52:28;18.80;99.90
30889;DHT22;51092;50.874;7.024;2022-08-19T02:53:29;18.80;99.90
30889;DHT22;51092;50.874;7.024;2022-08-19T02:54:32;18.90;99.90
30889;DHT22;51092;50.874;7.024;2022-08-19T02:55:34;18.90;99.90
30889;DHT22;51092;50.874;7.024;2022-08-19T02:56:40;18.90;99.90
30889;DHT22;51092;50.874;7.024;2022-08-19T02:57:42;18.90;99.90
30889;DHT22;51092;50.874;7.024;2022-08-19T02:58:44;19.00;99.90
30889;DHT22;51092;50.874;7.024;2022-08-19T02:59:46;19.00;99.90
30889;DHT22;51092;50.874;7.024;2022-08-19T03:00:52;19.10;99.90
30889;DHT22;51092;50.874;7.024;2022-08-19T03:01:53;19.10;99.90
30889;DHT22;51092;50.874;7.024;2022-08-19T03:02:56;19.10;99.90
30889;DHT22;51092;50.874;7.024;2022-08-19T03:03:59;19.20;99.90
30889;DHT22;51092;50.874;7.024;2022-08-19T03:05:02;19.20;99.90
30889;DHT22;51092;50.874;7.024;2022-08-19T03:06:06;19.20;99.90
30889;DHT22;51092;50.874;7.024;2022-08-19T03:07:09;19.20;99.90
30889;DHT22;51092;50.874;7.024;2022-08-19T03:08:14;19.20;99.90
30889;DHT22;51092;50.874;7.024;2022-08-19T03:09:19;19.20;99.90
30889;DHT22;51092;50.874;7.024;2022-08-19T03:10:21;19.10;99.90
30889;DHT22;51092;50.874;7.024;2022-08-19T03:11:26;19.10;99.90
30889;DHT22;51092;50.874;7.024;2022-08-19T03:12:30;19.00;99.90
30889;DHT22;51092;50.874;7.024;2022-08-19T03:13:32;19.00;99.90
30889;DHT22;51092;50.874;7.024;2022-08-19T03:14:33;19.00;99.90
30889;DHT22;51092;50.874;7.024;2022-08-19T03:15:39;19.00;99.90
30889;DHT22;51092;50.874;7.024;2022-08-19T03:16:44;19.00;99.90
30889;DHT22;51092;50.874;7.024;2022-08-19T03:17:47;19.00;99.90
30889;DHT22;51092;50.874;7.024;2022-08-19T03:18:49;18.90;99.90
30889;DHT22;51092;50.874;7.024;2022-08-19T03:19:51;18.90;99.90
30889;DHT22;51092;50.874;7.024;2022-08-19T03:20:53;18.90;99.90
30889;DHT22;51092;50.874;7.024;2022-08-19T03:21:56;18.90;99.90
30889;DHT22;51092;50.874;7.024;2022-08-19T03:22:57;18.90;99.90
30889;DHT22;51092;50.874;7.024;2022-08-19T03:24:02;18.80;99.90
30889;DHT22;51092;50.874;7.024;2022-08-19T03:25:05;18.80;99.90
30889;DHT22;51092;50.874;7.024;2022-08-19T03:26:07;18.80;99.90
30889;DHT22;51092;50.874;7.024;2022-08-19T03:27:09;18.80;99.90
30889;DHT22;51092;50.874;7.024;2022-08-19T03:28:14;18.80;99.90
30889;DHT22;51092;50.874;7.024;2022-08-19T03:29:19;18.80;99.90
30889;DHT22;51092;50.874;7.024;2022-08-19T03:30:21;18.80;99.90
30889;DHT22;51092;50.874;7.024;2022-08-19T03:31:25;18.80;99.90
30889;DHT22;51092;50.874;7.024;2022-08-19T03:32:28;18.80;99.90
30889;DHT22;51092;50.874;7.024;2022-08-19T03:33:31;18.80;99.90
30889;DHT22;51092;50.874;7.024;2022-08-19T03:34:36;18.90;99.90
30889;DHT22;51092;50.874;7.024;2022-08-19T03:35:38;18.90;99.90
30889;DHT22;51092;50.874;7.024;2022-08-19T03:36:40;18.90;99.90
30889;DHT22;51092;50.874;7.024;2022-08-19T03:37:42;18.80;99.90
30889;DHT22;51092;50.874;7.024;2022-08-19T03:38:46;18.80;99.90
30889;DHT22;51092;50.874;7.024;2022-08-19T03:39:49;18.80;99.90
30889;DHT22;51092;50.874;7.024;2022-08-19T03:40:51;18.80;99.90
30889;DHT22;51092;50.874;7.024;2022-08-19T03:41:54;18.80;99.90
30889;DHT22;51092;50.874;7.024;2022-08-19T03:42:58;18.90;99.90
30889;DHT22;51092;50.874;7.024;2022-08-19T03:44:03;18.90;99.90
30889;DHT22;51092;50.874;7.024;2022-08-19T03:45:07;18.90;99.90
30889;DHT22;51092;50.874;7.024;2022-08-19T03:46:11;18.90;99.90
30889;DHT22;51092;50.874;7.024;2022-08-19T03:47:13;18.90;99.90
30889;DHT22;51092;50.874;7.024;2022-08-19T03:48:17;18.90;99.90
30889;DHT22;51092;50.874;7.024;2022-08-19T03:49:20;18.90;99.90
30889;DHT22;51092;50.874;7.024;2022-08-19T03:50:23;18.90;99.90
30889;DHT22;51092;50.874;7.024;2022-08-19T03:51:28;18.90;99.90
30889;DHT22;51092;50.874;7.024;2022-08-19T03:52:32;18.80;99.90
30889;DHT22;51092;50.874;7.024;2022-08-19T03:53:35;18.80;99.90
30889;DHT22;51092;50.874;7.024;2022-08-19T03:54:37;18.80;99.90
30889;DHT22;51092;50.874;7.024;2022-08-19T03:55:40;18.80;99.90
30889;DHT22;51092;50.874;7.024;2022-08-19T03:56:44;18.80;99.90
30889;DHT22;51092;50.874;7.024;2022-08-19T03:57:46;18.80;99.90
30889;DHT22;51092;50.874;7.024;2022-08-19T03:58:49;18.80;99.90
30889;DHT22;51092;50.874;7.024;2022-08-19T03:59:53;18.70;99.90
30889;DHT22;51092;50.874;7.024;2022-08-19T04:00:56;18.70;99.90
30889;DHT22;51092;50.874;7.024;2022-08-19T04:02:01;18.70;99.90
30889;DHT22;51092;50.874;7.024;2022-08-19T04:03:03;18.70;99.90
30889;DHT22;51092;50.874;7.024;2022-08-19T04:04:05;18.70;99.90
30889;DHT22;51092;50.874;7.024;2022-08-19T04:05:08;18.70;99.90
30889;DHT22;51092;50.874;7.024;2022-08-19T04:06:12;18.70;99.90
30889;DHT22;51092;50.874;7.024;2022-08-19T04:07:16;18.70;99.90
30889;DHT22;51092;50.874;7.024;2022-08-19T04:08:21;18.70;99.90
30889;DHT22;51092;50.874;7.024;2022-08-19T04:09:24;18.60;99.90
30889;DHT22;51092;50.874;7.024;2022-08-19T04:10:25;18.50;99.90
30889;DHT22;51092;50.874;7.024;2022-08-19T04:11:30;18.40;99.90
30889;DHT22;51092;50.874;7.024;2022-08-19T04:12:32;18.40;99.90
30889;DHT22;51092;50.874;7.024;2022-08-19T04:13:38;18.40;99.90
30889;DHT22;51092;50.874;7.024;2022-08-19T04:14:39;18.30;99.90
30889;DHT22;51092;50.874;7.024;2022-08-19T04:15:50;18.30;99.90
30889;DHT22;51092;50.874;7.024;2022-08-19T04:16:52;18.20;99.90
30889;DHT22;51092;50.874;7.024;2022-08-19T04:17:56;18.30;99.90
30889;DHT22;51092;50.874;7.024;2022-08-19T04:19:04;18.20;99.90
30889;DHT22;51092;50.874;7.024;2022-08-19T04:20:09;18.10;99.90
30889;DHT22;51092;50.874;7.024;2022-08-19T04:21:16;18.00;99.90
30889;DHT22;51092;50.874;7.024;2022-08-19T04:22:18;18.00;99.90
30889;DHT22;51092;50.874;7.024;2022-08-19T04:23:20;18.00;99.90
30889;DHT22;51092;50.874;7.024;2022-08-19T04:24:25;18.00;99.90
30889;DHT22;51092;50.874;7.024;2022-08-19T04:25:27;18.00;99.90
30889;DHT22;51092;50.874;7.024;2022-08-19T04:26:32;18.00;99.90
30889;DHT22;51092;50.874;7.024;2022-08-19T04:27:37;18.10;99.90
30889;DHT22;51092;50.874;7.024;2022-08-19T04:28:38;18.10;99.90
30889;DHT22;51092;50.874;7.024;2022-08-19T04:29:41;18.10;99.90
30889;DHT22;51092;50.874;7.024;2022-08-19T04:30:57;18.20;99.90
30889;DHT22;51092;50.874;7.024;2022-08-19T04:32:00;18.20;99.90
30889;DHT22;51092;50.874;7.024;2022-08-19T04:33:02;18.30;99.90
30889;DHT22;51092;50.874;7.024;2022-08-19T04:34:09;18.30;99.90
30889;DHT22;51092;50.874;7.024;2022-08-19T04:35:12;18.30;99.90
30889;DHT22;51092;50.874;7.024;2022-08-19T04:36:17;18.30;99.90
30889;DHT22;51092;50.874;7.024;2022-08-19T04:37:21;18.40;99.90
30889;DHT22;51092;50.874;7.024;2022-08-19T04:38:24;18.40;99.90
30889;DHT22;51092;50.874;7.024;2022-08-19T04:39:29;18.40;99.90
30889;DHT22;51092;50.874;7.024;2022-08-19T04:40:50;18.30;99.90
30889;DHT22;51092;50.874;7.024;2022-08-19T04:42:10;18.20;99.90
30889;DHT22;51092;50.874;7.024;2022-08-19T04:43:31;18.10;99.90
30889;DHT22;51092;50.874;7.024;2022-08-19T04:44:35;18.00;99.90
30889;DHT22;51092;50.874;7.024;2022-08-19T04:45:37;18.00;99.90
30889;DHT22;51092;50.874;7.024;2022-08-19T04:46:41;18.00;99.90
30889;DHT22;51092;50.874;7.024;2022-08-19T04:47:43;18.10;99.90
30889;DHT22;51092;50.874;7.024;2022-08-19T04:48:46;18.10;99.90
30889;DHT22;51092;50.874;7.024;2022-08-19T04:49:48;18.10;99.90
30889;DHT22;51092;50.874;7.024;2022-08-19T04:50:50;18.10;99.90
30889;DHT22;51092;50.874;7.024;2022-08-19T04:51:54;18.00;99.90
30889;DHT22;51092;50.874;7.024;2022-08-19T04:52:57;18.00;99.90
30889;DHT22;51092;50.874;7.024;2022-08-19T04:54:00;18.10;99.90
30889;DHT22;51092;50.874;7.024;2022-08-19T04:55:03;18.10;99.90
30889;DHT22;51092;50.874;7.024;2022-08-19T04:56:09;18.10;99.90
30889;DHT22;51092;50.874;7.024;2022-08-19T04:57:12;18.10;99.90
30889;DHT22;51092;50.874;7.024;2022-08-19T04:58:13;18.00;99.90
30889;DHT22;51092;50.874;7.024;2022-08-19T04:59:17;18.00;99.90
30889;DHT22;51092;50.874;7.024;2022-08-19T05:00:21;18.00;99.90
30889;DHT22;51092;50.874;7.024;2022-08-19T05:01:26;18.00;99.90
30889;DHT22;51092;50.874;7.024;2022-08-19T05:02:30;18.00;99.90
30889;DHT22;51092;50.874;7.024;2022-08-19T05:03:33;18.10;99.90
30889;DHT22;51092;50.874;7.024;2022-08-19T05:04:35;18.10;99.90
30889;DHT22;51092;50.874;7.024;2022-08-19T05:05:41;18.20;99.90
30889;DHT22;51092;50.874;7.024;2022-08-19T05:06:42;18.30;99.90
30889;DHT22;51092;50.874;7.024;2022-08-19T05:07:45;18.30;99.90
30889;DHT22;51092;50.874;7.024;2022-08-19T05:08:47;18.40;99.90
30889;DHT22;51092;50.874;7.024;2022-08-19T05:09:49;18.50;99.90
30889;DHT22;51092;50.874;7.024;2022-08-19T05:10:51;18.60;99.90
30889;DHT22;51092;50.874;7.024;2022-08-19T05:11:54;18.60;99.90
30889;DHT22;51092;50.874;7.024;2022-08-19T05:12:58;18.70;99.90
30889;DHT22;51092;50.874;7.024;2022-08-19T05:14:00;18.70;99.90
30889;DHT22;51092;50.874;7.024;2022-08-19T05:15:04;18.80;99.90
30889;DHT22;51092;50.874;7.024;2022-08-19T05:16:07;18.90;99.90
30889;DHT22;51092;50.874;7.024;2022-08-19T05:17:08;18.90;99.90
30889;DHT22;51092;50.874;7.024;2022-08-19T05:18:12;18.80;99.90
30889;DHT22;51092;50.874;7.024;2022-08-19T05:19:32;18.70;99.90
30889;DHT22;51092;50.874;7.024;2022-08-19T05:20:52;18.70;99.90
30889;DHT22;51092;50.874;7.024;2022-08-19T05:22:12;18.70;99.90
30889;DHT22;51092;50.874;7.024;2022-08-19T05:23:31;18.80;99.90
30889;DHT22;51092;50.874;7.024;2022-08-19T05:24:34;18.90;99.90
30889;DHT22;51092;50.874;7.024;2022-08-19T05:25:39;18.90;99.90
30889;DHT22;51092;50.874;7.024;2022-08-19T05:26:45;19.00;99.90
30889;DHT22;51092;50.874;7.024;2022-08-19T05:27:47;19.00;99.90
30889;DHT22;51092;50.874;7.024;2022-08-19T05:28:50;19.00;99.90
30889;DHT22;51092;50.874;7.024;2022-08-19T05:29:51;19.10;99.90
30889;DHT22;51092;50.874;7.024;2022-08-19T05:30:54;19.10;99.90
30889;DHT22;51092;50.874;7.024;2022-08-19T05:31:57;19.20;99.90
30889;DHT22;51092;50.874;7.024;2022-08-19T05:33:00;19.20;99.90
30889;DHT22;51092;50.874;7.024;2022-08-19T05:34:05;19.20;99.90
30889;DHT22;51092;50.874;7.024;2022-08-19T05:35:08;19.20;99.90
30889;DHT22;51092;50.874;7.024;2022-08-19T05:36:11;19.20;99.90
30889;DHT22;51092;50.874;7.024;2022-08-19T05:37:12;19.10;99.90
30889;DHT22;51092;50.874;7.024;2022-08-19T05:38:16;19.00;99.90
30889;DHT22;51092;50.874;7.024;2022-08-19T05:39:19;19.00;99.90
30889;DHT22;51092;50.874;7.024;2022-08-19T05:40:22;18.90;99.90
30889;DHT22;51092;50.874;7.024;2022-08-19T05:41:24;18.80;99.90
30889;DHT22;51092;50.874;7.024;2022-08-19T05:42:30;18.80;99.90
30889;DHT22;51092;50.874;7.024;2022-08-19T05:43:33;18.90;99.90
30889;DHT22;51092;50.874;7.024;2022-08-19T05:44:37;19.00;99.90
30889;DHT22;51092;50.874;7.024;2022-08-19T05:45:41;18.90;99.90
30889;DHT22;51092;50.874;7.024;2022-08-19T05:46:44;18.90;99.90
30889;DHT22;51092;50.874;7.024;2022-08-19T05:47:48;18.90;99.90
30889;DHT22;51092;50.874;7.024;2022-08-19T05:48:51;18.80;99.90
30889;DHT22;51092;50.874;7.024;2022-08-19T05:49:55;18.80;99.90
30889;DHT22;51092;50.874;7.024;2022-08-19T05:50:57;18.80;99.90
30889;DHT22;51092;50.874;7.024;2022-08-19T05:52:02;18.80;99.90
30889;DHT22;51092;50.874;7.024;2022-08-19T05:53:06;18.80;99.90
30889;DHT22;51092;50.874;7.024;2022-08-19T05:54:08;18.90;99.90
30889;DHT22;51092;50.874;7.024;2022-08-19T05:55:12;18.80;99.90
30889;DHT22;51092;50.874;7.024;2022-08-19T05:56:16;18.90;99.90
30889;DHT22;51092;50.874;7.024;2022-08-19T05:57:18;19.00;99.90
30889;DHT22;51092;50.874;7.024;2022-08-19T05:58:24;18.90;99.90
30889;DHT22;51092;50.874;7.024;2022-08-19T05:59:26;18.90;99.90
30889;DHT22;51092;50.874;7.024;2022-08-19T06:00:29;18.90;99.90
30889;DHT22;51092;50.874;7.024;2022-08-19T06:01:32;19.00;99.90
30889;DHT22;51092;50.874;7.024;2022-08-19T06:02:34;19.00;99.90
30889;DHT22;51092;50.874;7.024;2022-08-19T06:03:37;19.00;99.90
30889;DHT22;51092;50.874;7.024;2022-08-19T06:04:40;19.00;99.90
30889;DHT22;51092;50.874;7.024;2022-08-19T06:05:44;19.10;99.90
30889;DHT22;51092;50.874;7.024;2022-08-19T06:06:47;19.20;99.90
30889;DHT22;51092;50.874;7.024;2022-08-19T06:07:49;19.20;99.90
30889;DHT22;51092;50.874;7.024;2022-08-19T06:08:52;19.30;99.90
30889;DHT22;51092;50.874;7.024;2022-08-19T06:09:53;19.20;99.90
30889;DHT22;51092;50.874;7.024;2022-08-19T06:10:56;19.30;99.90
30889;DHT22;51092;50.874;7.024;2022-08-19T06:11:58;19.20;99.90
30889;DHT22;51092;50.874;7.024;2022-08-19T06:13:03;19.20;99.90
30889;DHT22;51092;50.874;7.024;2022-08-19T06:14:09;19.30;99.90
30889;DHT22;51092;50.874;7.024;2022-08-19T06:15:13;19.40;99.90
30889;DHT22;51092;50.874;7.024;2022-08-19T06:16:15;19.40;99.90
30889;DHT22;51092;50.874;7.024;2022-08-19T06:17:21;19.40;99.90
30889;DHT22;51092;50.874;7.024;2022-08-19T06:18:26;19.40;99.90
30889;DHT22;51092;50.874;7.024;2022-08-19T06:19:29;19.50;99.90
30889;DHT22;51092;50.874;7.024;2022-08-19T06:20:32;19.50;99.90
30889;DHT22;51092;50.874;7.024;2022-08-19T06:21:36;19.60;99.90
30889;DHT22;51092;50.874;7.024;2022-08-19T06:22:40;19.60;99.90
30889;DHT22;51092;50.874;7.024;2022-08-19T06:23:42;19.70;99.90
30889;DHT22;51092;50.874;7.024;2022-08-19T06:24:44;19.80;99.90
30889;DHT22;51092;50.874;7.024;2022-08-19T06:25:47;19.80;99.90
30889;DHT22;51092;50.874;7.024;2022-08-19T06:26:49;19.80;99.90
30889;DHT22;51092;50.874;7.024;2022-08-19T06:27:52;19.80;99.90
30889;DHT22;51092;50.874;7.024;2022-08-19T06:28:54;19.70;99.90
30889;DHT22;51092;50.874;7.024;2022-08-19T06:29:57;19.70;99.90
30889;DHT22;51092;50.874;7.024;2022-08-19T06:30:59;19.80;99.90
30889;DHT22;51092;50.874;7.024;2022-08-19T06:32:03;19.80;99.90
30889;DHT22;51092;50.874;7.024;2022-08-19T06:33:06;19.80;99.90
30889;DHT22;51092;50.874;7.024;2022-08-19T06:34:07;19.80;99.90
30889;DHT22;51092;50.874;7.024;2022-08-19T06:35:10;19.90;99.90
30889;DHT22;51092;50.874;7.024;2022-08-19T06:36:19;19.90;99.90
30889;DHT22;51092;50.874;7.024;2022-08-19T06:37:23;19.90;99.90
30889;DHT22;51092;50.874;7.024;2022-08-19T06:38:26;19.90;99.90
30889;DHT22;51092;50.874;7.024;2022-08-19T06:39:32;19.80;99.90
30889;DHT22;51092;50.874;7.024;2022-08-19T06:40:35;19.80;99.90
30889;DHT22;51092;50.874;7.024;2022-08-19T06:41:40;19.80;99.90